createdAt,value
2024-05-09T00:00:35.510Z,11.46
2024-05-09T00:03:07.310Z,11.42
2024-05-09T00:05:34.378Z,11.39
2024-05-09T00:08:01.351Z,11.37
2024-05-09T00:10:35.384Z,11.33
2024-05-09T00:13:04.696Z,11.28
2024-05-09T00:15:31.551Z,11.20
2024-05-09T00:17:58.331Z,11.21
2024-05-09T00:20:33.089Z,11.20
2024-05-09T00:23:06.788Z,11.18
2024-05-09T00:25:33.616Z,11.17
2024-05-09T00:28:00.162Z,11.14
2024-05-09T00:30:33.584Z,11.12
2024-05-09T00:33:03.643Z,11.07
2024-05-09T00:35:30.886Z,11.06
2024-05-09T00:37:57.561Z,11.03
2024-05-09T00:40:35.060Z,11.03
2024-05-09T00:43:06.572Z,11.04
2024-05-09T00:45:34.332Z,11.02
2024-05-09T00:48:07.115Z,10.98
2024-05-09T00:50:38.020Z,10.95
2024-05-09T00:53:07.748Z,10.88
2024-05-09T00:55:36.481Z,10.88
2024-05-09T00:58:05.154Z,10.89
2024-05-09T01:00:38.405Z,10.88
2024-05-09T01:03:07.862Z,10.81
2024-05-09T01:05:35.391Z,10.74
2024-05-09T01:08:02.716Z,10.67
2024-05-09T01:10:34.339Z,10.68
2024-05-09T01:13:04.064Z,10.62
2024-05-09T01:15:30.839Z,10.63
2024-05-09T01:17:58.260Z,10.64
2024-05-09T01:20:36.532Z,10.64
2024-05-09T01:23:09.737Z,10.62
2024-05-09T01:25:36.804Z,10.57
2024-05-09T01:28:03.440Z,10.52
2024-05-09T01:30:34.818Z,10.47
2024-05-09T01:33:04.471Z,10.42
2024-05-09T01:35:31.508Z,10.37
2024-05-09T01:37:58.101Z,10.45
2024-05-09T01:40:33.578Z,10.44
2024-05-09T01:43:04.697Z,10.41
2024-05-09T01:45:34.164Z,10.38
2024-05-09T01:48:01.136Z,10.39
2024-05-09T01:50:37.543Z,10.34
2024-05-09T01:53:09.039Z,10.32
2024-05-09T01:55:35.749Z,10.36
2024-05-09T01:58:02.294Z,10.39
2024-05-09T02:00:37.339Z,10.35
2024-05-09T02:03:09.684Z,10.34
2024-05-09T02:05:36.851Z,10.25
2024-05-09T02:08:04.368Z,10.29
2024-05-09T02:10:32.976Z,10.24
2024-05-09T02:13:00.030Z,10.22
2024-05-09T02:15:26.591Z,10.12
2024-05-09T02:17:53.415Z,10.12
2024-05-09T02:20:30.041Z,10.13
2024-05-09T02:23:03.627Z,10.13
2024-05-09T02:25:30.520Z,10.07
2024-05-09T02:27:57.195Z,10.06
2024-05-09T02:30:31.010Z,10.04
2024-05-09T02:33:05.832Z,9.98
2024-05-09T02:35:32.552Z,9.96
2024-05-09T02:37:59.191Z,9.94
2024-05-09T02:40:33.634Z,9.90
2024-05-09T02:43:04.196Z,9.89
2024-05-09T02:45:30.733Z,9.85
2024-05-09T02:47:57.670Z,9.79
2024-05-09T02:50:33.114Z,9.78
2024-05-09T02:53:04.454Z,9.79
2024-05-09T02:55:31.243Z,9.82
2024-05-09T02:57:57.859Z,9.80
2024-05-09T03:00:33.654Z,9.77
2024-05-09T03:03:05.675Z,9.71
2024-05-09T03:05:32.564Z,9.71
2024-05-09T03:07:59.159Z,9.71
2024-05-09T03:10:28.820Z,9.68
2024-05-09T03:13:01.709Z,9.63
2024-05-09T03:15:32.147Z,9.57
2024-05-09T03:18:00.091Z,9.62
2024-05-09T03:20:32.991Z,9.59
2024-05-09T03:23:02.208Z,9.59
2024-05-09T03:25:28.836Z,9.58
2024-05-09T03:27:55.371Z,9.58
2024-05-09T03:30:31.077Z,9.59
2024-05-09T03:33:19.987Z,9.50
2024-05-09T03:35:48.054Z,9.42
2024-05-09T03:38:15.093Z,9.39
2024-05-09T03:40:46.387Z,9.44
2024-05-09T03:43:13.923Z,9.43
2024-05-09T03:45:43.918Z,9.40
2024-05-09T03:48:10.758Z,9.36
2024-05-09T03:50:38.031Z,9.42
2024-05-09T03:53:05.378Z,9.40
2024-05-09T03:55:32.115Z,9.33
2024-05-09T03:57:58.838Z,9.28
2024-05-09T04:00:31.787Z,9.30
2024-05-09T04:03:06.237Z,9.32
2024-05-09T04:05:34.979Z,9.32
2024-05-09T04:08:01.685Z,9.37
2024-05-09T04:10:33.230Z,9.37
2024-05-09T04:13:04.560Z,9.38
2024-05-09T04:15:31.588Z,9.32
2024-05-09T04:17:58.461Z,9.31
2024-05-09T04:20:35.855Z,9.32
2024-05-09T04:23:06.967Z,9.32
2024-05-09T04:25:34.223Z,9.29
2024-05-09T04:28:00.825Z,9.33
2024-05-09T04:30:36.362Z,9.36
2024-05-09T04:33:07.976Z,9.36
2024-05-09T04:35:36.077Z,9.35
2024-05-09T04:38:02.811Z,9.47
2024-05-09T04:40:34.099Z,9.52
2024-05-09T04:43:03.718Z,9.56
2024-05-09T04:45:30.433Z,9.65
2024-05-09T04:47:57.241Z,9.80
2024-05-09T04:50:33.225Z,9.85
2024-05-09T04:53:04.045Z,9.79
2024-05-09T04:55:30.719Z,9.77
2024-05-09T04:57:57.245Z,9.81
2024-05-09T05:00:32.462Z,9.85
2024-05-09T05:03:06.894Z,9.84
2024-05-09T05:05:34.871Z,9.87
2024-05-09T05:08:01.560Z,9.89
2024-05-09T05:10:33.992Z,9.90
2024-05-09T05:13:25.101Z,9.96
2024-05-09T05:15:55.768Z,10.06
2024-05-09T05:18:23.836Z,10.13
2024-05-09T05:20:50.406Z,10.18
2024-05-09T05:23:20.167Z,10.19
2024-05-09T05:25:48.754Z,10.18
2024-05-09T05:28:16.670Z,10.28
2024-05-09T05:30:43.461Z,10.25
2024-05-09T05:33:12.064Z,10.34
2024-05-09T05:35:39.559Z,10.39
2024-05-09T05:38:07.500Z,10.49
2024-05-09T05:40:37.255Z,10.55
2024-05-09T05:43:10.303Z,10.59
2024-05-09T05:45:37.409Z,10.72
2024-05-09T05:48:05.703Z,11.07
2024-05-09T05:50:36.372Z,11.19
2024-05-09T05:53:08.820Z,11.24
2024-05-09T05:55:36.689Z,11.34
2024-05-09T05:58:03.412Z,11.39
2024-05-09T06:00:37.504Z,11.40
2024-05-09T06:03:06.400Z,11.36
2024-05-09T06:05:33.574Z,11.42
2024-05-09T06:08:00.419Z,11.81
2024-05-09T06:10:36.992Z,12.68
2024-05-09T06:13:06.310Z,12.75
2024-05-09T06:15:32.828Z,12.68
2024-05-09T06:17:59.572Z,12.54
2024-05-09T06:20:34.819Z,12.39
2024-05-09T06:23:06.224Z,12.16
2024-05-09T06:25:33.690Z,12.14
2024-05-09T06:28:01.023Z,12.14
2024-05-09T06:30:36.651Z,12.15
2024-05-09T06:33:07.303Z,12.22
2024-05-09T06:35:34.411Z,12.27
2024-05-09T06:38:01.667Z,12.39
2024-05-09T06:40:36.442Z,12.53
2024-05-09T06:43:10.450Z,12.76
2024-05-09T06:45:37.166Z,12.91
2024-05-09T06:48:04.125Z,13.07
2024-05-09T06:50:36.875Z,13.19
2024-05-09T06:53:04.903Z,13.34
2024-05-09T06:55:31.515Z,13.58
2024-05-09T06:57:58.000Z,13.92
2024-05-09T07:00:30.882Z,14.07
2024-05-09T07:03:14.982Z,14.08
2024-05-09T07:05:43.881Z,14.31
2024-05-09T07:08:10.553Z,14.63
2024-05-09T07:10:37.577Z,14.79
2024-05-09T07:13:11.965Z,14.81
2024-05-09T07:15:39.402Z,14.90
2024-05-09T07:18:13.854Z,15.03
2024-05-09T07:20:41.254Z,15.11
2024-05-09T07:23:11.436Z,15.22
2024-05-09T07:25:39.383Z,15.26
2024-05-09T07:28:09.797Z,15.27
2024-05-09T07:30:36.274Z,15.37
2024-05-09T07:33:03.673Z,15.46
2024-05-09T07:35:31.187Z,15.46
2024-05-09T07:37:58.123Z,15.59
2024-05-09T07:40:32.791Z,15.78
2024-05-09T07:43:12.979Z,16.00
2024-05-09T07:45:49.602Z,16.18
2024-05-09T07:53:38.585Z,16.47
2024-05-09T07:56:07.362Z,16.53
2024-05-09T07:58:34.355Z,16.61
2024-05-09T08:01:02.632Z,16.84
2024-05-09T08:03:29.591Z,16.96
2024-05-09T08:05:56.228Z,17.00
2024-05-09T08:08:23.122Z,16.91
2024-05-09T08:10:50.648Z,17.09
2024-05-09T08:13:17.603Z,17.20
2024-05-09T08:15:44.240Z,17.31
2024-05-09T08:18:11.620Z,17.44
2024-05-09T08:20:38.996Z,17.64
2024-05-09T08:23:05.942Z,17.83
2024-05-09T08:25:32.363Z,17.91
2024-05-09T08:27:58.996Z,17.80
2024-05-09T08:30:32.791Z,17.73
2024-05-09T08:33:04.190Z,18.04
2024-05-09T08:35:30.843Z,18.02
2024-05-09T08:37:57.529Z,18.05
2024-05-09T08:40:31.055Z,18.07
2024-05-09T08:43:05.268Z,18.13
2024-05-09T08:45:33.478Z,18.29
2024-05-09T08:48:05.766Z,18.45
2024-05-09T08:50:38.808Z,18.50
2024-05-09T08:53:07.156Z,18.46
2024-05-09T08:55:33.924Z,18.48
2024-05-09T08:58:03.352Z,18.52
2024-05-09T09:00:36.812Z,18.58
2024-05-09T09:03:06.746Z,18.66
2024-05-09T09:05:37.883Z,18.65
2024-05-09T09:08:07.436Z,18.68
2024-05-09T09:10:34.652Z,18.78
2024-05-09T09:13:04.205Z,18.90
2024-05-09T09:15:31.272Z,19.15
2024-05-09T09:17:59.190Z,19.29
2024-05-09T09:20:34.133Z,19.43
2024-05-09T09:23:03.400Z,19.63
2024-05-09T09:25:30.053Z,19.79
2024-05-09T09:27:58.640Z,19.78
2024-05-09T09:30:35.030Z,19.96
2024-05-09T09:33:04.468Z,20.03
2024-05-09T09:35:31.185Z,19.80
2024-05-09T09:38:01.985Z,19.43
2024-05-09T09:40:37.107Z,19.20
2024-05-09T09:43:20.106Z,19.33
2024-05-09T09:45:53.442Z,19.27
2024-05-09T09:48:22.009Z,19.11
2024-05-09T09:50:51.497Z,18.98
2024-05-09T09:53:19.188Z,18.81
2024-05-09T09:55:46.932Z,18.60
2024-05-09T09:58:16.251Z,18.51
2024-05-09T10:00:43.170Z,18.50
2024-05-09T10:03:09.932Z,18.50
2024-05-09T10:05:37.438Z,18.48
2024-05-09T10:08:06.875Z,18.43
2024-05-09T10:10:35.814Z,18.38
2024-05-09T10:13:05.716Z,18.42
2024-05-09T10:15:46.376Z,18.43
2024-05-09T10:18:13.354Z,18.62
2024-05-09T10:20:44.295Z,18.77
2024-05-09T10:23:37.093Z,18.66
2024-05-09T10:26:04.944Z,18.89
2024-05-09T10:28:35.008Z,19.08
2024-05-09T10:31:09.441Z,19.01
2024-05-09T10:33:37.614Z,19.15
2024-05-09T10:36:10.683Z,19.28
2024-05-09T10:38:37.178Z,19.25
2024-05-09T10:41:04.753Z,19.17
2024-05-09T10:43:31.386Z,19.07
2024-05-09T10:45:57.949Z,18.98
2024-05-09T10:48:24.844Z,18.92
2024-05-09T10:50:51.631Z,18.92
2024-05-09T10:53:19.183Z,18.81
2024-05-09T10:55:58.915Z,18.98
2024-05-09T10:58:26.157Z,19.13
2024-05-09T11:00:55.776Z,19.17
2024-05-09T11:03:26.094Z,19.24
2024-05-09T11:05:53.321Z,19.42
2024-05-09T11:08:24.415Z,19.58
2024-05-09T11:10:52.515Z,19.52
2024-05-09T11:13:32.768Z,19.44
2024-05-09T11:16:00.587Z,19.44
2024-05-09T11:18:30.875Z,19.54
2024-05-09T11:21:00.484Z,19.56
2024-05-09T11:23:30.033Z,19.60
2024-05-09T11:25:58.319Z,19.68
2024-05-09T11:28:26.852Z,19.76
2024-05-09T11:31:06.475Z,19.69
2024-05-09T11:33:36.903Z,19.78
2024-05-09T11:36:04.206Z,19.81
2024-05-09T11:38:31.213Z,19.69
2024-05-09T11:40:57.733Z,19.60
2024-05-09T11:43:24.421Z,19.52
2024-05-09T11:45:51.191Z,19.55
2024-05-09T11:48:17.824Z,19.56
2024-05-09T11:50:44.442Z,19.51
2024-05-09T11:53:12.310Z,19.46
2024-05-09T11:55:38.810Z,19.43
2024-05-09T11:58:05.859Z,19.44
2024-05-09T12:00:36.907Z,19.42
2024-05-09T12:03:05.659Z,19.44
2024-05-09T12:05:34.011Z,19.36
2024-05-09T12:08:01.407Z,19.34
2024-05-09T12:10:33.362Z,19.34
2024-05-09T12:13:03.149Z,19.31
2024-05-09T12:15:30.795Z,19.32
2024-05-09T12:17:59.008Z,19.26
2024-05-09T12:20:35.416Z,19.27
2024-05-09T12:23:05.420Z,19.28
2024-05-09T12:25:32.072Z,19.29
2024-05-09T12:27:58.727Z,19.28
2024-05-09T12:30:34.441Z,19.19
2024-05-09T12:33:05.001Z,19.12
2024-05-09T12:35:31.835Z,19.14
2024-05-09T12:37:58.456Z,19.08
2024-05-09T12:40:34.233Z,19.10
2024-05-09T12:43:04.107Z,19.18
2024-05-09T12:45:30.806Z,19.18
2024-05-09T12:47:57.493Z,19.20
2024-05-09T12:50:31.079Z,19.28
2024-05-09T12:52:59.558Z,19.31
2024-05-09T12:55:26.937Z,19.39
2024-05-09T12:57:53.824Z,19.45
2024-05-09T13:00:27.417Z,19.49
2024-05-09T13:02:58.276Z,19.39
2024-05-09T13:05:25.019Z,19.41
2024-05-09T13:07:51.753Z,19.42
2024-05-09T13:10:28.661Z,19.37
2024-05-09T13:12:59.217Z,19.37
2024-05-09T13:15:25.885Z,19.36
2024-05-09T13:17:52.623Z,19.44
2024-05-09T13:20:26.394Z,19.51
2024-05-09T13:23:01.627Z,19.49
2024-05-09T13:25:28.205Z,19.50
2024-05-09T13:27:55.307Z,19.50
2024-05-09T13:30:29.487Z,19.48
2024-05-09T13:33:05.875Z,19.47
2024-05-09T13:35:34.314Z,19.47
2024-05-09T13:38:02.012Z,19.41
2024-05-09T13:40:33.631Z,19.41
2024-05-09T13:43:02.889Z,19.44
2024-05-09T13:45:29.604Z,19.42
2024-05-09T13:47:56.617Z,19.28
2024-05-09T13:50:31.334Z,19.16
2024-05-09T13:53:02.141Z,19.12
2024-05-09T13:55:28.858Z,19.09
2024-05-09T13:57:55.811Z,19.02
2024-05-09T14:00:32.260Z,18.98
2024-05-09T14:03:09.460Z,18.90
2024-05-09T14:05:36.359Z,18.87
2024-05-09T14:08:06.243Z,18.84
2024-05-09T14:10:33.034Z,18.80
2024-05-09T14:13:00.041Z,18.81
2024-05-09T14:15:26.867Z,18.70
2024-05-09T14:17:54.223Z,18.76
2024-05-09T14:20:30.291Z,18.87
2024-05-09T14:23:02.123Z,18.91
2024-05-09T14:25:30.024Z,18.92
2024-05-09T14:27:59.962Z,18.93
2024-05-09T14:30:34.769Z,18.89
2024-05-09T14:33:05.077Z,18.85
2024-05-09T14:35:32.057Z,18.86
2024-05-09T14:37:58.919Z,18.95
2024-05-09T14:40:36.922Z,18.99
2024-05-09T14:43:08.749Z,19.04
2024-05-09T14:45:35.639Z,18.97
2024-05-09T14:48:02.806Z,19.11
2024-05-09T14:50:35.827Z,19.12
2024-05-09T14:53:06.410Z,19.17
2024-05-09T14:55:37.285Z,19.25
2024-05-09T14:58:09.175Z,19.41
2024-05-09T15:00:41.514Z,19.51
2024-05-09T15:03:11.368Z,19.53
2024-05-09T15:05:38.016Z,19.60
2024-05-09T15:08:08.474Z,19.61
2024-05-09T15:10:36.721Z,19.61
2024-05-09T15:13:05.211Z,19.56
2024-05-09T15:15:32.362Z,19.37
2024-05-09T15:17:59.615Z,19.21
2024-05-09T15:20:33.473Z,19.20
2024-05-09T15:23:03.246Z,19.19
2024-05-09T15:25:30.187Z,19.24
2024-05-09T15:27:57.049Z,19.32
2024-05-09T15:30:31.290Z,19.27
2024-05-09T15:33:00.906Z,19.18
2024-05-09T15:35:27.878Z,19.08
2024-05-09T15:37:54.915Z,18.98
2024-05-09T15:40:30.921Z,18.99
2024-05-09T15:43:05.089Z,18.98
2024-05-09T15:45:32.040Z,18.99
2024-05-09T15:47:59.100Z,19.04
2024-05-09T15:50:35.550Z,19.07
2024-05-09T15:53:06.683Z,19.07
2024-05-09T15:55:34.318Z,19.01
2024-05-09T15:58:02.319Z,18.87
2024-05-09T16:00:37.184Z,18.91
2024-05-09T16:03:07.709Z,18.92
2024-05-09T16:05:34.652Z,18.98
2024-05-09T16:08:01.454Z,19.03
2024-05-09T16:10:32.690Z,19.03
2024-05-09T16:13:00.962Z,18.97
2024-05-09T16:15:27.639Z,18.91
2024-05-09T16:17:54.331Z,18.84
2024-05-09T16:20:33.756Z,18.84
2024-05-09T16:23:05.832Z,18.77
2024-05-09T16:25:32.684Z,18.75
2024-05-09T16:27:59.584Z,18.77
2024-05-09T16:30:33.502Z,18.76
2024-05-09T16:33:03.039Z,18.76
2024-05-09T16:35:30.118Z,18.75
2024-05-09T16:37:57.252Z,18.75
2024-05-09T16:40:34.295Z,18.78
2024-05-09T16:43:06.262Z,18.73
2024-05-09T16:45:33.343Z,18.74
2024-05-09T16:48:00.711Z,18.76
2024-05-09T16:50:32.771Z,18.77
2024-05-09T16:53:01.796Z,18.67
2024-05-09T16:55:28.505Z,18.58
2024-05-09T16:57:55.974Z,18.49
2024-05-09T17:00:34.792Z,18.46
2024-05-09T17:03:07.781Z,18.44
2024-05-09T17:05:35.393Z,18.38
2024-05-09T17:08:02.602Z,18.40
2024-05-09T17:10:32.694Z,18.45
2024-05-09T17:13:01.862Z,18.45
2024-05-09T17:15:28.650Z,18.46
2024-05-09T17:17:55.898Z,18.44
2024-05-09T17:20:29.682Z,18.46
2024-05-09T17:23:01.638Z,18.50
2024-05-09T17:25:28.346Z,18.50
2024-05-09T17:27:55.233Z,18.50
2024-05-09T17:30:28.922Z,18.48
2024-05-09T17:33:01.661Z,18.44
2024-05-09T17:35:28.480Z,18.39
2024-05-09T17:37:55.120Z,18.37
2024-05-09T17:40:30.719Z,18.32
2024-05-09T17:43:01.061Z,18.30
2024-05-09T17:45:27.621Z,18.27
2024-05-09T17:47:54.397Z,18.22
2024-05-09T17:50:27.244Z,18.19
2024-05-09T17:53:00.398Z,18.11
2024-05-09T17:55:27.049Z,18.10
2024-05-09T17:57:53.698Z,18.07
2024-05-09T18:00:29.015Z,17.98
2024-05-09T18:03:03.723Z,17.91
2024-05-09T18:05:30.417Z,17.89
2024-05-09T18:07:57.341Z,17.79
2024-05-09T18:10:29.982Z,17.74
2024-05-09T18:13:02.358Z,17.67
2024-05-09T18:15:29.007Z,17.60
2024-05-09T18:17:55.710Z,17.53
2024-05-09T18:20:32.618Z,17.49
2024-05-09T18:23:07.251Z,17.49
2024-05-09T18:25:33.773Z,17.39
2024-05-09T18:28:02.413Z,17.35
2024-05-09T18:30:34.440Z,17.33
2024-05-09T18:33:03.111Z,17.32
2024-05-09T18:35:29.743Z,17.31
2024-05-09T18:37:56.325Z,17.20
2024-05-09T18:40:31.257Z,17.17
2024-05-09T18:43:01.914Z,17.10
2024-05-09T18:45:29.039Z,17.06
2024-05-09T18:47:56.758Z,17.02
2024-05-09T18:50:32.000Z,16.99
2024-05-09T18:53:03.431Z,16.93
2024-05-09T18:55:29.948Z,16.91
2024-05-09T18:57:56.807Z,16.87
2024-05-09T19:00:33.210Z,16.85
2024-05-09T19:03:05.739Z,16.82
2024-05-09T19:05:35.320Z,16.77
2024-05-09T19:08:02.786Z,16.72
2024-05-09T19:10:34.229Z,16.67
2024-05-09T19:13:06.540Z,16.68
2024-05-09T19:15:37.053Z,16.64
2024-05-09T19:18:04.073Z,16.58
2024-05-09T19:20:34.504Z,16.56
2024-05-09T19:23:02.658Z,16.56
2024-05-09T19:25:29.306Z,16.53
2024-05-09T19:27:55.996Z,16.47
2024-05-09T19:30:30.371Z,16.42
2024-05-09T19:33:05.156Z,16.37
2024-05-09T19:35:32.292Z,16.36
2024-05-09T19:37:58.823Z,16.41
2024-05-09T19:40:31.127Z,16.31
2024-05-09T19:43:00.018Z,16.26
2024-05-09T19:45:26.586Z,16.20
2024-05-09T19:47:53.346Z,16.15
2024-05-09T19:50:26.896Z,16.09
2024-05-09T19:53:02.309Z,16.05
2024-05-09T19:55:28.870Z,15.99
2024-05-09T19:57:59.887Z,15.97
2024-05-09T20:00:32.903Z,15.91
2024-05-09T20:03:02.787Z,15.81
2024-05-09T20:05:30.974Z,15.85
2024-05-09T20:07:57.873Z,15.79
2024-05-09T20:10:29.840Z,15.74
2024-05-09T20:12:59.345Z,15.68
2024-05-09T20:15:25.919Z,15.62
2024-05-09T20:17:52.534Z,15.57
2024-05-09T20:20:28.352Z,15.51
2024-05-09T20:23:02.874Z,15.47
2024-05-09T20:25:29.518Z,15.42
2024-05-09T20:27:56.139Z,15.38
2024-05-09T20:30:29.005Z,15.33
2024-05-09T20:32:59.699Z,15.33
2024-05-09T20:35:26.639Z,15.29
2024-05-09T20:37:53.227Z,15.23
2024-05-09T20:40:28.260Z,15.18
2024-05-09T20:42:59.205Z,15.11
2024-05-09T20:45:25.936Z,15.06
2024-05-09T20:47:52.687Z,15.01
2024-05-09T20:50:28.128Z,14.97
2024-05-09T20:53:02.800Z,14.95
2024-05-09T20:55:29.839Z,14.89
2024-05-09T20:57:56.840Z,14.84
2024-05-09T21:00:30.097Z,14.79
2024-05-09T21:03:05.140Z,14.78
2024-05-09T21:05:32.199Z,14.73
2024-05-09T21:07:58.959Z,14.69
2024-05-09T21:10:27.259Z,14.65
2024-05-09T21:12:56.373Z,14.63
2024-05-09T21:15:23.428Z,14.57
2024-05-09T21:17:50.238Z,14.59
2024-05-09T21:20:20.664Z,14.50
2024-05-09T21:22:50.855Z,14.41
2024-05-09T21:25:17.466Z,14.36
2024-05-09T21:27:44.147Z,14.33
2024-05-09T21:30:18.404Z,14.31
2024-05-09T21:32:50.220Z,14.28
2024-05-09T21:35:19.743Z,14.26
2024-05-09T21:37:46.299Z,14.23
2024-05-09T21:40:17.031Z,14.20
2024-05-09T21:42:50.725Z,14.19
2024-05-09T21:45:17.246Z,14.12
2024-05-09T21:47:43.954Z,14.12
2024-05-09T21:50:18.661Z,14.11
2024-05-09T21:52:49.814Z,14.03
2024-05-09T21:55:16.478Z,14.05
2024-05-09T21:57:43.124Z,14.05
2024-05-09T22:00:24.855Z,14.05
2024-05-09T22:02:59.009Z,14.06
2024-05-09T22:05:25.562Z,14.07
2024-05-09T22:07:52.137Z,14.04
2024-05-09T22:10:25.697Z,14.03
2024-05-09T22:12:56.675Z,14.00
2024-05-09T22:15:23.197Z,14.00
2024-05-09T22:17:49.862Z,13.99
2024-05-09T22:20:22.287Z,13.92
2024-05-09T22:22:55.457Z,13.97
2024-05-09T22:25:26.610Z,13.93
2024-05-09T22:27:54.503Z,13.88
2024-05-09T22:30:24.219Z,13.80
2024-05-09T22:32:58.429Z,13.79
2024-05-09T22:35:25.063Z,13.88
2024-05-09T22:37:51.665Z,13.83
2024-05-09T22:40:28.262Z,13.83
2024-05-09T22:43:04.644Z,13.77
2024-05-09T22:45:31.244Z,13.75
2024-05-09T22:47:57.997Z,13.74
2024-05-09T22:50:27.022Z,13.70
2024-05-09T22:52:58.844Z,13.69
2024-05-09T22:55:25.400Z,13.62
2024-05-09T22:57:51.973Z,13.55
2024-05-09T23:00:21.797Z,13.53
2024-05-09T23:02:52.865Z,13.54
2024-05-09T23:05:19.636Z,13.47
2024-05-09T23:07:46.256Z,13.42
2024-05-09T23:10:17.372Z,13.47
2024-05-09T23:12:51.336Z,13.47
2024-05-09T23:15:17.878Z,13.46
2024-05-09T23:17:44.684Z,13.41
2024-05-09T23:20:11.865Z,13.40
2024-05-09T23:22:40.970Z,13.39
2024-05-09T23:25:07.594Z,13.38
2024-05-09T23:27:34.296Z,13.35
2024-05-09T23:30:00.834Z,13.30
2024-05-09T23:32:27.608Z,13.29
2024-05-09T23:34:54.307Z,13.26
2024-05-09T23:37:20.937Z,13.14
2024-05-09T23:39:47.605Z,13.15
2024-05-09T23:42:14.189Z,13.12
2024-05-09T23:44:40.739Z,13.05
2024-05-09T23:47:10.173Z,13.03
2024-05-09T23:49:37.362Z,13.05
2024-05-09T23:52:04.351Z,13.04
2024-05-09T23:54:30.864Z,13.05
2024-05-09T23:56:57.352Z,12.94
2024-05-09T23:59:26.601Z,12.89
